EWR weather

Newark Liberty International Airport
Newark, New Jersey, United States

Public forecast

Using degrees Fahrenheit for public forecast. Weather courtesy of forecast.io.

Current aviation weather report (METAR) for Newark Liberty International Airport

Retrieved 2020/08/07 23:13 UTC (0 seconds ago):

KEWR 072313Z 16004KT 6SM -TSRA FEW032 SCT050CB BKN110 BKN140 OVC250 24/20 A3011 RMK AO2 LTG DSNT W AND NW TSE08B13 OCNL LTGIC VC W TS VC W MOV E P0001 T02390200

Aviation forecast (TAF) for Newark Liberty International Airport

Retrieved 2020/08/07 18:39 UTC (4 hours ago):

TAF KEWR 071737Z 0718/0824 07008KT P6SM SCT025 BKN035 FM072000 12008KT P6SM SCT025 BKN040 FM080000 VRB04KT P6SM VCSH SCT025 OVC035 FM080500 02004KT 6SM BR SCT015 BKN025 FM081500 02005KT P6SM SCT025 SCT050 FM081900 14008KT P6SM VCSH SCT025 BKN050